sensor_id;sensor_type;location;lat;lon;timestamp;P1;durP1;ratioP1;P2;durP2;ratioP2
54023;SDS011;49584;38.820;-121.162;2022-09-27T00:01:42;8.32;;;2.10;;
54023;SDS011;49584;38.820;-121.162;2022-09-27T00:06:43;12.35;;;2.30;;
54023;SDS011;49584;38.820;-121.162;2022-09-27T00:11:45;3.97;;;2.10;;
54023;SDS011;49584;38.820;-121.162;2022-09-27T00:16:47;6.30;;;2.00;;
54023;SDS011;49584;38.820;-121.162;2022-09-27T00:21:48;7.28;;;2.10;;
54023;SDS011;49584;38.820;-121.162;2022-09-27T00:26:50;5.95;;;1.92;;
54023;SDS011;49584;38.820;-121.162;2022-09-27T00:31:51;3.25;;;1.60;;
54023;SDS011;49584;38.820;-121.162;2022-09-27T00:36:52;5.30;;;1.63;;
54023;SDS011;49584;38.820;-121.162;2022-09-27T00:41:54;4.88;;;1.60;;
54023;SDS011;49584;38.820;-121.162;2022-09-27T00:52:16;7.10;;;1.77;;
54023;SDS011;49584;38.820;-121.162;2022-09-27T00:57:23;2.72;;;1.45;;
54023;SDS011;49584;38.820;-121.162;2022-09-27T01:02:25;6.80;;;1.48;;
54023;SDS011;49584;38.820;-121.162;2022-09-27T01:07:26;3.88;;;1.30;;
54023;SDS011;49584;38.820;-121.162;2022-09-27T01:12:30;5.63;;;1.63;;
54023;SDS011;49584;38.820;-121.162;2022-09-27T01:17:50;2.58;;;1.30;;
54023;SDS011;49584;38.820;-121.162;2022-09-27T01:33:38;5.68;;;1.60;;
54023;SDS011;49584;38.820;-121.162;2022-09-27T01:44:10;4.63;;;1.83;;
54023;SDS011;49584;38.820;-121.162;2022-09-27T01:49:40;12.88;;;1.75;;
54023;SDS011;49584;38.820;-121.162;2022-09-27T01:54:43;4.13;;;1.88;;
54023;SDS011;49584;38.820;-121.162;2022-09-27T01:59:53;6.80;;;2.00;;
54023;SDS011;49584;38.820;-121.162;2022-09-27T02:04:59;5.30;;;1.80;;
54023;SDS011;49584;38.820;-121.162;2022-09-27T02:10:10;4.60;;;1.77;;
54023;SDS011;49584;38.820;-121.162;2022-09-27T02:15:17;6.15;;;1.65;;
54023;SDS011;49584;38.820;-121.162;2022-09-27T02:20:29;8.52;;;1.70;;
54023;SDS011;49584;38.820;-121.162;2022-09-27T02:25:53;7.13;;;1.80;;
54023;SDS011;49584;38.820;-121.162;2022-09-27T02:30:55;11.32;;;1.92;;
54023;SDS011;49584;38.820;-121.162;2022-09-27T02:35:57;8.52;;;1.88;;
54023;SDS011;49584;38.820;-121.162;2022-09-27T02:40:58;13.30;;;1.90;;
54023;SDS011;49584;38.820;-121.162;2022-09-27T02:51:19;9.07;;;1.90;;
54023;SDS011;49584;38.820;-121.162;2022-09-27T02:56:46;9.57;;;1.90;;
54023;SDS011;49584;38.820;-121.162;2022-09-27T03:07:32;13.18;;;2.00;;
54023;SDS011;49584;38.820;-121.162;2022-09-27T03:12:34;6.28;;;1.85;;
54023;SDS011;49584;38.820;-121.162;2022-09-27T03:17:35;4.13;;;1.70;;
54023;SDS011;49584;38.820;-121.162;2022-09-27T03:22:37;11.38;;;2.25;;
54023;SDS011;49584;38.820;-121.162;2022-09-27T03:27:38;7.78;;;2.00;;
54023;SDS011;49584;38.820;-121.162;2022-09-27T03:32:42;9.38;;;2.00;;
54023;SDS011;49584;38.820;-121.162;2022-09-27T03:37:44;6.85;;;2.05;;
54023;SDS011;49584;38.820;-121.162;2022-09-27T03:42:48;9.43;;;2.22;;
54023;SDS011;49584;38.820;-121.162;2022-09-27T03:47:50;11.18;;;2.50;;
54023;SDS011;49584;38.820;-121.162;2022-09-27T03:52:51;14.45;;;2.13;;
54023;SDS011;49584;38.820;-121.162;2022-09-27T03:57:53;6.50;;;2.10;;
54023;SDS011;49584;38.820;-121.162;2022-09-27T04:02:54;7.63;;;2.08;;
54023;SDS011;49584;38.820;-121.162;2022-09-27T04:07:56;7.70;;;2.10;;
54023;SDS011;49584;38.820;-121.162;2022-09-27T04:12:57;7.47;;;2.10;;
54023;SDS011;49584;38.820;-121.162;2022-09-27T04:17:58;7.45;;;2.13;;
54023;SDS011;49584;38.820;-121.162;2022-09-27T04:23:02;5.00;;;1.70;;
54023;SDS011;49584;38.820;-121.162;2022-09-27T04:28:03;9.32;;;2.00;;
54023;SDS011;49584;38.820;-121.162;2022-09-27T04:33:05;7.05;;;1.90;;
54023;SDS011;49584;38.820;-121.162;2022-09-27T04:38:07;3.95;;;1.75;;
54023;SDS011;49584;38.820;-121.162;2022-09-27T04:43:08;5.90;;;1.98;;
54023;SDS011;49584;38.820;-121.162;2022-09-27T04:48:09;8.68;;;1.85;;
54023;SDS011;49584;38.820;-121.162;2022-09-27T04:53:14;7.60;;;2.10;;
54023;SDS011;49584;38.820;-121.162;2022-09-27T04:58:15;3.40;;;1.50;;
54023;SDS011;49584;38.820;-121.162;2022-09-27T05:03:17;7.00;;;1.83;;
54023;SDS011;49584;38.820;-121.162;2022-09-27T05:08:18;5.50;;;2.03;;
54023;SDS011;49584;38.820;-121.162;2022-09-27T05:13:20;7.00;;;1.90;;
54023;SDS011;49584;38.820;-121.162;2022-09-27T05:18:21;4.53;;;1.80;;
54023;SDS011;49584;38.820;-121.162;2022-09-27T05:23:23;3.42;;;1.48;;
54023;SDS011;49584;38.820;-121.162;2022-09-27T05:28:25;5.20;;;1.55;;
54023;SDS011;49584;38.820;-121.162;2022-09-27T05:33:26;5.95;;;1.90;;
54023;SDS011;49584;38.820;-121.162;2022-09-27T05:38:27;5.13;;;1.90;;
54023;SDS011;49584;38.820;-121.162;2022-09-27T05:43:29;9.23;;;1.90;;
54023;SDS011;49584;38.820;-121.162;2022-09-27T05:48:33;5.32;;;1.80;;
54023;SDS011;49584;38.820;-121.162;2022-09-27T05:53:36;6.43;;;1.63;;
54023;SDS011;49584;38.820;-121.162;2022-09-27T05:58:37;4.78;;;1.90;;
54023;SDS011;49584;38.820;-121.162;2022-09-27T06:03:38;5.07;;;2.00;;
54023;SDS011;49584;38.820;-121.162;2022-09-27T06:08:40;9.02;;;1.90;;
54023;SDS011;49584;38.820;-121.162;2022-09-27T06:13:41;7.35;;;1.98;;
54023;SDS011;49584;38.820;-121.162;2022-09-27T06:18:42;7.25;;;2.17;;
54023;SDS011;49584;38.820;-121.162;2022-09-27T06:23:44;7.05;;;2.50;;
54023;SDS011;49584;38.820;-121.162;2022-09-27T06:28:45;3.60;;;2.05;;
54023;SDS011;49584;38.820;-121.162;2022-09-27T06:33:46;3.20;;;1.95;;
54023;SDS011;49584;38.820;-121.162;2022-09-27T06:38:48;4.03;;;2.10;;
54023;SDS011;49584;38.820;-121.162;2022-09-27T06:43:49;5.40;;;1.90;;
54023;SDS011;49584;38.820;-121.162;2022-09-27T06:48:51;3.85;;;2.20;;
54023;SDS011;49584;38.820;-121.162;2022-09-27T06:53:52;3.20;;;2.10;;
54023;SDS011;49584;38.820;-121.162;2022-09-27T06:58:53;8.27;;;2.30;;
54023;SDS011;49584;38.820;-121.162;2022-09-27T07:04:12;6.55;;;2.10;;
54023;SDS011;49584;38.820;-121.162;2022-09-27T07:09:15;6.18;;;2.40;;
54023;SDS011;49584;38.820;-121.162;2022-09-27T07:14:16;4.75;;;2.33;;
54023;SDS011;49584;38.820;-121.162;2022-09-27T07:19:17;7.60;;;2.55;;
54023;SDS011;49584;38.820;-121.162;2022-09-27T07:24:18;8.88;;;2.60;;
54023;SDS011;49584;38.820;-121.162;2022-09-27T07:29:19;5.40;;;2.72;;
54023;SDS011;49584;38.820;-121.162;2022-09-27T07:34:21;9.35;;;2.63;;
54023;SDS011;49584;38.820;-121.162;2022-09-27T07:39:22;6.65;;;2.70;;
54023;SDS011;49584;38.820;-121.162;2022-09-27T07:44:23;13.93;;;2.97;;
54023;SDS011;49584;38.820;-121.162;2022-09-27T07:49:24;6.05;;;2.60;;
54023;SDS011;49584;38.820;-121.162;2022-09-27T07:54:25;8.43;;;3.33;;
54023;SDS011;49584;38.820;-121.162;2022-09-27T07:59:27;6.95;;;2.80;;
54023;SDS011;49584;38.820;-121.162;2022-09-27T08:04:31;4.75;;;2.60;;
54023;SDS011;49584;38.820;-121.162;2022-09-27T08:09:32;8.73;;;3.10;;
54023;SDS011;49584;38.820;-121.162;2022-09-27T08:14:33;5.57;;;2.83;;
54023;SDS011;49584;38.820;-121.162;2022-09-27T08:19:35;5.43;;;3.10;;
54023;SDS011;49584;38.820;-121.162;2022-09-27T08:24:36;9.75;;;3.08;;
54023;SDS011;49584;38.820;-121.162;2022-09-27T08:29:37;5.57;;;3.00;;
54023;SDS011;49584;38.820;-121.162;2022-09-27T08:34:40;7.35;;;2.78;;
54023;SDS011;49584;38.820;-121.162;2022-09-27T08:39:42;6.22;;;2.80;;
54023;SDS011;49584;38.820;-121.162;2022-09-27T08:44:54;14.18;;;3.65;;
54023;SDS011;49584;38.820;-121.162;2022-09-27T08:55:24;5.43;;;3.00;;
54023;SDS011;49584;38.820;-121.162;2022-09-27T09:00:27;6.88;;;3.00;;
54023;SDS011;49584;38.820;-121.162;2022-09-27T09:05:30;5.63;;;3.08;;
54023;SDS011;49584;38.820;-121.162;2022-09-27T09:21:48;8.95;;;3.38;;
54023;SDS011;49584;38.820;-121.162;2022-09-27T09:37:46;8.23;;;3.40;;
54023;SDS011;49584;38.820;-121.162;2022-09-27T09:42:56;6.97;;;3.20;;
54023;SDS011;49584;38.820;-121.162;2022-09-27T09:48:12;12.25;;;3.35;;
54023;SDS011;49584;38.820;-121.162;2022-09-27T09:58:56;8.38;;;3.28;;
54023;SDS011;49584;38.820;-121.162;2022-09-27T10:04:01;7.50;;;3.30;;
54023;SDS011;49584;38.820;-121.162;2022-09-27T10:09:03;6.28;;;3.00;;
54023;SDS011;49584;38.820;-121.162;2022-09-27T10:14:04;8.05;;;3.15;;
54023;SDS011;49584;38.820;-121.162;2022-09-27T10:19:12;9.10;;;3.10;;
54023;SDS011;49584;38.820;-121.162;2022-09-27T10:24:22;6.45;;;3.05;;
54023;SDS011;49584;38.820;-121.162;2022-09-27T10:29:28;4.80;;;3.08;;
54023;SDS011;49584;38.820;-121.162;2022-09-27T10:34:37;7.82;;;2.90;;
54023;SDS011;49584;38.820;-121.162;2022-09-27T10:39:42;7.93;;;3.10;;
54023;SDS011;49584;38.820;-121.162;2022-09-27T10:44:47;5.72;;;2.80;;
54023;SDS011;49584;38.820;-121.162;2022-09-27T10:49:49;5.13;;;2.88;;
54023;SDS011;49584;38.820;-121.162;2022-09-27T10:54:52;5.57;;;3.00;;
54023;SDS011;49584;38.820;-121.162;2022-09-27T11:00:04;5.80;;;2.97;;
54023;SDS011;49584;38.820;-121.162;2022-09-27T11:10:31;6.20;;;3.22;;
54023;SDS011;49584;38.820;-121.162;2022-09-27T11:15:36;6.18;;;3.38;;
54023;SDS011;49584;38.820;-121.162;2022-09-27T11:37:10;8.23;;;3.08;;
54023;SDS011;49584;38.820;-121.162;2022-09-27T11:53:26;6.93;;;3.17;;
54023;SDS011;49584;38.820;-121.162;2022-09-27T11:58:35;8.88;;;3.60;;
54023;SDS011;49584;38.820;-121.162;2022-09-27T12:09:11;6.63;;;3.28;;
54023;SDS011;49584;38.820;-121.162;2022-09-27T12:19:34;9.07;;;3.67;;
54023;SDS011;49584;38.820;-121.162;2022-09-27T12:24:41;12.90;;;3.65;;
54023;SDS011;49584;38.820;-121.162;2022-09-27T12:29:44;7.53;;;3.42;;
54023;SDS011;49584;38.820;-121.162;2022-09-27T12:40:36;9.52;;;3.10;;
54023;SDS011;49584;38.820;-121.162;2022-09-27T12:45:48;8.98;;;3.03;;
54023;SDS011;49584;38.820;-121.162;2022-09-27T12:51:07;5.93;;;2.60;;
54023;SDS011;49584;38.820;-121.162;2022-09-27T13:07:20;6.80;;;3.20;;
54023;SDS011;49584;38.820;-121.162;2022-09-27T13:12:46;8.68;;;3.60;;
54023;SDS011;49584;38.820;-121.162;2022-09-27T13:17:54;6.15;;;3.15;;
54023;SDS011;49584;38.820;-121.162;2022-09-27T13:33:32;9.35;;;3.38;;
54023;SDS011;49584;38.820;-121.162;2022-09-27T13:39:02;14.07;;;3.42;;
54023;SDS011;49584;38.820;-121.162;2022-09-27T13:49:38;5.63;;;3.28;;
54023;SDS011;49584;38.820;-121.162;2022-09-27T13:54:51;11.85;;;3.53;;
54023;SDS011;49584;38.820;-121.162;2022-09-27T13:59:54;9.90;;;3.20;;
54023;SDS011;49584;38.820;-121.162;2022-09-27T14:05:05;7.05;;;3.28;;
54023;SDS011;49584;38.820;-121.162;2022-09-27T14:10:13;12.95;;;3.80;;
54023;SDS011;49584;38.820;-121.162;2022-09-27T14:15:18;11.48;;;4.05;;
54023;SDS011;49584;38.820;-121.162;2022-09-27T14:20:36;8.82;;;3.50;;
54023;SDS011;49584;38.820;-121.162;2022-09-27T14:25:47;8.07;;;3.50;;
54023;SDS011;49584;38.820;-121.162;2022-09-27T14:36:25;12.48;;;3.58;;
54023;SDS011;49584;38.820;-121.162;2022-09-27T14:41:49;8.65;;;3.55;;
54023;SDS011;49584;38.820;-121.162;2022-09-27T14:52:30;6.70;;;3.38;;
54023;SDS011;49584;38.820;-121.162;2022-09-27T14:57:34;5.55;;;2.90;;
54023;SDS011;49584;38.820;-121.162;2022-09-27T15:02:38;9.15;;;3.63;;
54023;SDS011;49584;38.820;-121.162;2022-09-27T15:07:42;12.15;;;3.30;;
54023;SDS011;49584;38.820;-121.162;2022-09-27T15:12:46;12.05;;;3.22;;
54023;SDS011;49584;38.820;-121.162;2022-09-27T15:17:49;8.68;;;2.97;;
54023;SDS011;49584;38.820;-121.162;2022-09-27T15:22:51;5.72;;;2.75;;
54023;SDS011;49584;38.820;-121.162;2022-09-27T15:27:53;6.32;;;2.88;;
54023;SDS011;49584;38.820;-121.162;2022-09-27T15:32:55;5.72;;;2.50;;
54023;SDS011;49584;38.820;-121.162;2022-09-27T15:38:08;6.97;;;2.80;;
54023;SDS011;49584;38.820;-121.162;2022-09-27T15:48:31;6.47;;;2.80;;
54023;SDS011;49584;38.820;-121.162;2022-09-27T15:58:35;5.10;;;2.70;;
54023;SDS011;49584;38.820;-121.162;2022-09-27T16:03:37;7.40;;;2.60;;
54023;SDS011;49584;38.820;-121.162;2022-09-27T16:08:38;7.05;;;2.55;;
54023;SDS011;49584;38.820;-121.162;2022-09-27T16:13:39;8.90;;;2.70;;
54023;SDS011;49584;38.820;-121.162;2022-09-27T16:18:41;9.32;;;2.90;;
54023;SDS011;49584;38.820;-121.162;2022-09-27T16:23:43;5.97;;;2.72;;
54023;SDS011;49584;38.820;-121.162;2022-09-27T16:28:44;9.48;;;2.75;;
54023;SDS011;49584;38.820;-121.162;2022-09-27T16:33:49;5.78;;;2.53;;
54023;SDS011;49584;38.820;-121.162;2022-09-27T16:38:50;7.25;;;2.55;;
54023;SDS011;49584;38.820;-121.162;2022-09-27T16:43:52;6.57;;;2.80;;
54023;SDS011;49584;38.820;-121.162;2022-09-27T16:48:54;6.53;;;2.67;;
54023;SDS011;49584;38.820;-121.162;2022-09-27T16:53:55;4.22;;;2.47;;
54023;SDS011;49584;38.820;-121.162;2022-09-27T16:58:57;5.93;;;2.50;;
54023;SDS011;49584;38.820;-121.162;2022-09-27T17:04:03;6.28;;;2.50;;
54023;SDS011;49584;38.820;-121.162;2022-09-27T17:09:04;5.68;;;2.70;;
54023;SDS011;49584;38.820;-121.162;2022-09-27T17:14:06;3.67;;;2.47;;
54023;SDS011;49584;38.820;-121.162;2022-09-27T17:19:09;5.10;;;2.70;;
54023;SDS011;49584;38.820;-121.162;2022-09-27T17:24:11;5.88;;;2.63;;
54023;SDS011;49584;38.820;-121.162;2022-09-27T17:29:12;5.35;;;2.38;;
54023;SDS011;49584;38.820;-121.162;2022-09-27T17:34:14;7.70;;;2.30;;
54023;SDS011;49584;38.820;-121.162;2022-09-27T17:39:17;10.82;;;2.63;;
54023;SDS011;49584;38.820;-121.162;2022-09-27T17:44:21;6.43;;;2.17;;
54023;SDS011;49584;38.820;-121.162;2022-09-27T17:49:23;5.07;;;2.30;;
54023;SDS011;49584;38.820;-121.162;2022-09-27T17:54:43;5.50;;;2.30;;
54023;SDS011;49584;38.820;-121.162;2022-09-27T17:59:44;5.28;;;2.38;;
54023;SDS011;49584;38.820;-121.162;2022-09-27T18:04:45;5.38;;;1.83;;
54023;SDS011;49584;38.820;-121.162;2022-09-27T18:09:46;6.95;;;2.20;;
54023;SDS011;49584;38.820;-121.162;2022-09-27T18:14:49;4.03;;;2.13;;
54023;SDS011;49584;38.820;-121.162;2022-09-27T18:19:50;6.38;;;2.30;;
54023;SDS011;49584;38.820;-121.162;2022-09-27T18:24:52;7.13;;;2.40;;
54023;SDS011;49584;38.820;-121.162;2022-09-27T18:29:54;5.97;;;1.90;;
54023;SDS011;49584;38.820;-121.162;2022-09-27T18:34:55;6.45;;;1.80;;
54023;SDS011;49584;38.820;-121.162;2022-09-27T18:39:56;3.28;;;2.20;;
54023;SDS011;49584;38.820;-121.162;2022-09-27T18:44:57;4.57;;;1.90;;
54023;SDS011;49584;38.820;-121.162;2022-09-27T18:49:58;5.57;;;2.10;;
54023;SDS011;49584;38.820;-121.162;2022-09-27T18:55:00;5.57;;;2.15;;
54023;SDS011;49584;38.820;-121.162;2022-09-27T19:00:01;12.10;;;2.17;;
54023;SDS011;49584;38.820;-121.162;2022-09-27T19:05:04;8.10;;;2.00;;
54023;SDS011;49584;38.820;-121.162;2022-09-27T19:10:06;5.93;;;2.00;;
54023;SDS011;49584;38.820;-121.162;2022-09-27T19:15:09;3.85;;;1.95;;
54023;SDS011;49584;38.820;-121.162;2022-09-27T19:20:10;8.60;;;1.50;;
54023;SDS011;49584;38.820;-121.162;2022-09-27T19:25:11;6.38;;;2.10;;
54023;SDS011;49584;38.820;-121.162;2022-09-27T19:30:13;4.60;;;1.70;;
54023;SDS011;49584;38.820;-121.162;2022-09-27T19:35:14;6.30;;;1.83;;
54023;SDS011;49584;38.820;-121.162;2022-09-27T19:40:15;3.80;;;1.70;;
54023;SDS011;49584;38.820;-121.162;2022-09-27T19:45:16;4.70;;;1.83;;
54023;SDS011;49584;38.820;-121.162;2022-09-27T19:50:18;8.13;;;1.90;;
54023;SDS011;49584;38.820;-121.162;2022-09-27T19:55:19;5.78;;;1.77;;
54023;SDS011;49584;38.820;-121.162;2022-09-27T20:00:20;4.88;;;1.77;;
54023;SDS011;49584;38.820;-121.162;2022-09-27T20:05:22;8.15;;;1.98;;
54023;SDS011;49584;38.820;-121.162;2022-09-27T20:10:23;2.38;;;1.50;;
54023;SDS011;49584;38.820;-121.162;2022-09-27T20:15:24;3.38;;;1.70;;
54023;SDS011;49584;38.820;-121.162;2022-09-27T20:20:25;8.02;;;1.70;;
54023;SDS011;49584;38.820;-121.162;2022-09-27T20:25:26;4.97;;;1.60;;
54023;SDS011;49584;38.820;-121.162;2022-09-27T20:30:28;6.45;;;1.83;;
54023;SDS011;49584;38.820;-121.162;2022-09-27T20:35:31;7.47;;;1.70;;
54023;SDS011;49584;38.820;-121.162;2022-09-27T20:40:33;6.28;;;1.60;;
54023;SDS011;49584;38.820;-121.162;2022-09-27T20:45:34;6.10;;;1.50;;
54023;SDS011;49584;38.820;-121.162;2022-09-27T20:50:35;8.85;;;1.50;;
54023;SDS011;49584;38.820;-121.162;2022-09-27T20:55:36;5.63;;;1.30;;
54023;SDS011;49584;38.820;-121.162;2022-09-27T21:00:37;3.33;;;1.13;;
54023;SDS011;49584;38.820;-121.162;2022-09-27T21:05:39;2.63;;;1.00;;
54023;SDS011;49584;38.820;-121.162;2022-09-27T21:10:40;1.85;;;1.13;;
54023;SDS011;49584;38.820;-121.162;2022-09-27T21:15:41;2.67;;;1.40;;
54023;SDS011;49584;38.820;-121.162;2022-09-27T21:20:43;3.40;;;1.40;;
54023;SDS011;49584;38.820;-121.162;2022-09-27T21:25:44;3.88;;;1.30;;
54023;SDS011;49584;38.820;-121.162;2022-09-27T21:30:45;4.53;;;1.20;;
54023;SDS011;49584;38.820;-121.162;2022-09-27T21:35:49;7.95;;;1.50;;
54023;SDS011;49584;38.820;-121.162;2022-09-27T21:40:54;5.50;;;1.30;;
54023;SDS011;49584;38.820;-121.162;2022-09-27T21:46:04;3.42;;;1.20;;
54023;SDS011;49584;38.820;-121.162;2022-09-27T21:51:08;8.10;;;1.30;;
54023;SDS011;49584;38.820;-121.162;2022-09-27T21:56:12;7.93;;;1.27;;
54023;SDS011;49584;38.820;-121.162;2022-09-27T22:01:17;3.53;;;1.15;;
54023;SDS011;49584;38.820;-121.162;2022-09-27T22:06:27;4.38;;;1.30;;
54023;SDS011;49584;38.820;-121.162;2022-09-27T22:16:31;2.72;;;1.10;;
54023;SDS011;49584;38.820;-121.162;2022-09-27T22:21:33;7.63;;;1.40;;
54023;SDS011;49584;38.820;-121.162;2022-09-27T22:26:36;1.90;;;1.20;;
54023;SDS011;49584;38.820;-121.162;2022-09-27T22:31:38;4.82;;;1.13;;
54023;SDS011;49584;38.820;-121.162;2022-09-27T22:36:40;4.68;;;1.20;;
54023;SDS011;49584;38.820;-121.162;2022-09-27T22:41:41;2.53;;;1.13;;
54023;SDS011;49584;38.820;-121.162;2022-09-27T22:46:42;8.25;;;1.23;;
54023;SDS011;49584;38.820;-121.162;2022-09-27T22:51:45;4.03;;;1.20;;
54023;SDS011;49584;38.820;-121.162;2022-09-27T22:56:46;4.75;;;1.55;;
54023;SDS011;49584;38.820;-121.162;2022-09-27T23:01:56;2.00;;;1.17;;
54023;SDS011;49584;38.820;-121.162;2022-09-27T23:06:57;4.90;;;1.40;;
54023;SDS011;49584;38.820;-121.162;2022-09-27T23:11:58;7.32;;;1.30;;
54023;SDS011;49584;38.820;-121.162;2022-09-27T23:16:59;5.10;;;1.33;;
54023;SDS011;49584;38.820;-121.162;2022-09-27T23:22:01;3.60;;;1.15;;
54023;SDS011;49584;38.820;-121.162;2022-09-27T23:27:02;5.63;;;1.25;;
54023;SDS011;49584;38.820;-121.162;2022-09-27T23:32:22;2.70;;;1.40;;
54023;SDS011;49584;38.820;-121.162;2022-09-27T23:37:23;5.25;;;1.38;;
54023;SDS011;49584;38.820;-121.162;2022-09-27T23:42:24;6.03;;;1.65;;
54023;SDS011;49584;38.820;-121.162;2022-09-27T23:47:26;4.68;;;1.50;;
54023;SDS011;49584;38.820;-121.162;2022-09-27T23:52:28;5.32;;;1.50;;
54023;SDS011;49584;38.820;-121.162;2022-09-27T23:57:29;6.65;;;1.45;;
